Time;durP1;ratioP1;P1;durP2;ratioP2;P2;SDS_P1;SDS_P2;PMS_P1;PMS_P2;Temp;Humidity;BMP_temperature;BMP_pressure;BME280_temperature;BME280_humidity;BME280_pressure;Samples;Min_cycle;Max_cycle;Signal;HPM_P1;HPM_P2
2021/01/23 00:01:27;;;;;;;9.83;4.57;;;;;;;;;;10243033;28;20038;-61
2021/01/23 00:06:24;;;;;;;8.17;4.37;;;;;;;;;;10239406;28;20532;-61
2021/01/23 00:11:21;;;;;;;16.33;5.57;;;;;;;;;;10232421;28;20072;-63
2021/01/23 00:16:19;;;;;;;9.00;3.53;;;;;;;;;;10247229;28;20512;-62
2021/01/23 00:21:16;;;;;;;10.83;5.27;;;;;;;;;;10227352;28;20111;-62
2021/01/23 00:26:14;;;;;;;18.23;5.50;;;;;;;;;;10243916;28;20030;-61
2021/01/23 00:31:12;;;;;;;14.67;7.13;;;;;;;;;;10208129;28;20034;-61
2021/01/23 00:36:10;;;;;;;9.38;3.03;;;;;;;;;;10241473;28;20088;-62
2021/01/23 00:41:07;;;;;;;15.10;5.50;;;;;;;;;;10243564;28;20121;-61
2021/01/23 00:46:05;;;;;;;7.63;3.50;;;;;;;;;;10245565;28;20029;-63
2021/01/23 00:51:02;;;;;;;7.23;4.53;;;;;;;;;;10238698;28;20022;-64
2021/01/23 00:56:00;;;;;;;8.70;4.93;;;;;;;;;;10204296;28;20656;-65
2021/01/23 01:00:57;;;;;;;11.17;6.23;;;;;;;;;;10227296;28;20030;-63
2021/01/23 01:05:55;;;;;;;12.70;5.63;;;;;;;;;;10230641;28;20052;-60
2021/01/23 01:10:53;;;;;;;14.20;5.87;;;;;;;;;;10232443;28;20057;-61
2021/01/23 01:15:50;;;;;;;7.80;4.75;;;;;;;;;;10251061;28;20230;-63
2021/01/23 01:20:48;;;;;;;7.30;4.67;;;;;;;;;;10233679;28;20568;-64
2021/01/23 01:25:45;;;;;;;12.80;5.73;;;;;;;;;;10238174;28;20431;-64
2021/01/23 01:30:42;;;;;;;9.27;4.80;;;;;;;;;;10244908;28;20303;-64
2021/01/23 01:35:40;;;;;;;14.77;6.30;;;;;;;;;;10220885;28;20026;-64
2021/01/23 01:40:37;;;;;;;13.73;6.33;;;;;;;;;;10228578;28;20026;-64
2021/01/23 01:45:35;;;;;;;9.97;4.83;;;;;;;;;;10213812;28;20119;-64
2021/01/23 01:50:32;;;;;;;18.93;5.30;;;;;;;;;;10245304;28;20133;-66
2021/01/23 01:55:33;;;;;;;12.07;4.87;;;;;;;;;;10195564;28;20041;-63
2021/01/23 02:00:31;;;;;;;11.98;5.25;;;;;;;;;;10244170;28;20069;-62
2021/01/23 02:05:28;;;;;;;11.37;6.13;;;;;;;;;;10232705;28;20065;-64
2021/01/23 02:10:44;;;;;;;15.70;8.27;;;;;;;;;;10249548;28;20030;-66
2021/01/23 02:16:02;;;;;;;14.30;6.53;;;;;;;;;;10226236;28;21426;-63
2021/01/23 02:21:18;;;;;;;16.08;6.97;;;;;;;;;;10208135;28;20049;-65
2021/01/23 02:26:26;;;;;;;10.15;6.10;;;;;;;;;;10251994;28;20113;-64
2021/01/23 02:31:25;;;;;;;22.98;8.43;;;;;;;;;;10224433;28;20054;-64
2021/01/23 02:36:22;;;;;;;12.93;4.22;;;;;;;;;;10223534;28;20035;-66
2021/01/23 02:41:20;;;;;;;15.45;7.32;;;;;;;;;;10229238;28;20041;-65
2021/01/23 02:46:18;;;;;;;22.90;8.80;;;;;;;;;;10227474;28;20059;-64
2021/01/23 02:51:15;;;;;;;13.10;7.07;;;;;;;;;;10227668;28;20073;-63
2021/01/23 02:56:18;;;;;;;12.73;5.40;;;;;;;;;;10228731;28;20040;-63
2021/01/23 03:01:16;;;;;;;9.63;4.93;;;;;;;;;;10233661;28;20034;-64
2021/01/23 03:06:14;;;;;;;9.95;5.70;;;;;;;;;;10237428;28;20042;-64
2021/01/23 03:11:11;;;;;;;12.97;7.63;;;;;;;;;;10219476;28;20042;-65
2021/01/23 03:16:08;;;;;;;14.93;7.60;;;;;;;;;;10238130;28;20042;-64
2021/01/23 03:21:06;;;;;;;15.50;6.97;;;;;;;;;;10240428;28;20113;-64
2021/01/23 03:26:03;;;;;;;15.43;8.23;;;;;;;;;;10246442;28;20112;-63
2021/01/23 03:31:01;;;;;;;15.77;7.70;;;;;;;;;;10202741;28;20038;-63
2021/01/23 03:35:58;;;;;;;13.83;7.57;;;;;;;;;;10220201;28;20022;-63
2021/01/23 03:40:55;;;;;;;21.00;9.70;;;;;;;;;;10220632;28;20027;-63
2021/01/23 03:45:53;;;;;;;18.87;7.93;;;;;;;;;;10234097;28;20026;-65
2021/01/23 03:50:50;;;;;;;18.87;8.33;;;;;;;;;;10223046;28;20524;-64
2021/01/23 03:55:48;;;;;;;18.40;7.73;;;;;;;;;;10234131;28;21246;-63
2021/01/23 04:00:45;;;;;;;18.00;8.67;;;;;;;;;;10239921;28;20133;-63
2021/01/23 04:05:43;;;;;;;22.63;10.38;;;;;;;;;;10219963;28;20038;-64
2021/01/23 04:10:41;;;;;;;26.08;11.23;;;;;;;;;;10216899;28;20026;-60
2021/01/23 04:15:39;;;;;;;27.43;11.60;;;;;;;;;;10198860;28;20099;-62
2021/01/23 04:20:36;;;;;;;28.75;12.93;;;;;;;;;;10240590;28;20405;-58
2021/01/23 04:25:33;;;;;;;22.07;10.83;;;;;;;;;;10241555;28;20105;-62
2021/01/23 04:30:31;;;;;;;26.13;12.10;;;;;;;;;;10237895;28;20037;-61
2021/01/23 04:35:28;;;;;;;16.83;8.50;;;;;;;;;;10232599;28;20045;-62
2021/01/23 04:40:27;;;;;;;29.60;11.93;;;;;;;;;;10240478;28;20038;-61
2021/01/23 04:45:24;;;;;;;22.77;10.40;;;;;;;;;;10220590;28;20034;-62
2021/01/23 04:50:22;;;;;;;25.20;12.53;;;;;;;;;;10220169;28;20030;-62
2021/01/23 04:55:19;;;;;;;30.83;11.93;;;;;;;;;;10238796;28;20034;-64
2021/01/23 05:00:17;;;;;;;26.13;12.60;;;;;;;;;;10232999;28;20030;-63
2021/01/23 05:05:14;;;;;;;24.30;10.10;;;;;;;;;;10228707;28;20496;-61
2021/01/23 05:10:16;;;;;;;26.70;13.63;;;;;;;;;;10239854;28;20126;-64
2021/01/23 05:15:20;;;;;;;40.30;15.20;;;;;;;;;;10231026;28;20072;-62
2021/01/23 05:20:38;;;;;;;35.97;15.10;;;;;;;;;;10234702;28;20125;-61
2021/01/23 05:25:37;;;;;;;29.17;13.48;;;;;;;;;;10240880;28;20393;-65
2021/01/23 05:30:38;;;;;;;28.58;13.88;;;;;;;;;;10213421;28;20037;-61
2021/01/23 05:35:36;;;;;;;37.15;16.55;;;;;;;;;;10217664;28;20036;-63
2021/01/23 05:40:33;;;;;;;35.95;14.98;;;;;;;;;;10241775;28;20036;-64
2021/01/23 05:45:31;;;;;;;27.47;12.67;;;;;;;;;;10206777;28;20445;-63
2021/01/23 05:50:28;;;;;;;34.67;14.77;;;;;;;;;;10221317;28;20044;-61
2021/01/23 05:55:26;;;;;;;25.97;12.93;;;;;;;;;;10243811;28;20034;-61
2021/01/23 06:00:24;;;;;;;36.17;14.15;;;;;;;;;;10204837;28;20136;-63
2021/01/23 06:05:21;;;;;;;25.77;12.73;;;;;;;;;;10227426;28;20034;-65
2021/01/23 06:10:22;;;;;;;29.80;13.23;;;;;;;;;;10223186;28;20048;-63
2021/01/23 06:15:32;;;;;;;38.50;14.02;;;;;;;;;;10216540;28;20050;-64
2021/01/23 06:20:49;;;;;;;32.97;15.82;;;;;;;;;;10212040;28;20431;-61
2021/01/23 06:25:50;;;;;;;35.22;16.27;;;;;;;;;;10207196;28;20050;-62
2021/01/23 06:30:53;;;;;;;25.48;12.32;;;;;;;;;;10242289;28;20046;-62
2021/01/23 06:36:06;;;;;;;27.75;14.57;;;;;;;;;;10230979;28;20453;-63
2021/01/23 06:41:22;;;;;;;32.97;16.15;;;;;;;;;;10240592;28;20027;-65
2021/01/23 06:46:19;;;;;;;15.57;8.52;;;;;;;;;;10219410;28;20048;-64
2021/01/23 06:51:19;;;;;;;15.63;8.10;;;;;;;;;;10227258;28;20031;-64
2021/01/23 06:56:17;;;;;;;26.80;12.60;;;;;;;;;;10233178;28;20073;-64
2021/01/23 07:01:17;;;;;;;17.10;10.40;;;;;;;;;;10250836;28;20092;-62
2021/01/23 07:06:15;;;;;;;23.15;10.60;;;;;;;;;;10239150;28;20042;-63
2021/01/23 07:11:21;;;;;;;33.80;15.03;;;;;;;;;;10226500;28;20045;-64
2021/01/23 07:21:48;;;;;;;40.15;13.88;;;;;;;;;;10262766;22;20136;-66
2021/01/23 07:26:46;;;;;;;39.15;14.55;;;;;;;;;;10289372;28;20147;-66
2021/01/23 07:31:44;;;;;;;31.25;13.45;;;;;;;;;;10264266;28;20588;-66
2021/01/23 07:36:42;;;;;;;38.17;14.77;;;;;;;;;;10251512;28;20041;-65
2021/01/23 07:41:45;;;;;;;37.45;15.50;;;;;;;;;;10306881;28;20036;-67
2021/01/23 07:46:43;;;;;;;35.97;15.23;;;;;;;;;;10293824;28;20073;-66
2021/01/23 07:51:41;;;;;;;33.58;15.63;;;;;;;;;;10277134;28;20402;-66
2021/01/23 07:56:49;;;;;;;36.43;16.07;;;;;;;;;;10294233;28;20033;-66
2021/01/23 08:01:47;;;;;;;;;;;;;;;;;;10255092;28;20500;-66
2021/01/23 08:06:44;;;;;;;38.20;13.90;;;;;;;;;;10274317;28;20314;-65
2021/01/23 08:11:42;;;;;;;28.80;12.73;;;;;;;;;;10274224;28;20289;-66
2021/01/23 08:16:49;;;;;;;33.65;14.35;;;;;;;;;;10278361;28;20439;-67
2021/01/23 08:22:05;;;;;;;33.47;14.40;;;;;;;;;;10271251;28;20061;-66
2021/01/23 08:27:19;;;;;;;38.63;14.05;;;;;;;;;;10266232;28;20449;-65
2021/01/23 08:32:16;;;;;;;43.85;15.82;;;;;;;;;;10256974;28;20557;-64
2021/01/23 08:37:13;;;;;;;39.50;15.93;;;;;;;;;;10262188;28;20080;-65
2021/01/23 08:42:11;;;;;;;36.23;14.30;;;;;;;;;;10267304;28;20037;-66
2021/01/23 08:47:08;;;;;;;30.87;12.23;;;;;;;;;;10273058;28;20117;-66
2021/01/23 08:52:06;;;;;;;32.20;13.07;;;;;;;;;;10263453;28;20407;-66
2021/01/23 08:57:03;;;;;;;31.90;14.63;;;;;;;;;;10282851;28;20049;-65
2021/01/23 09:02:01;;;;;;;30.70;13.53;;;;;;;;;;10293248;28;20033;-66
2021/01/23 09:06:58;;;;;;;31.97;12.23;;;;;;;;;;10269327;28;20036;-66
2021/01/23 09:11:55;;;;;;;27.53;11.97;;;;;;;;;;10280329;28;20045;-66
2021/01/23 09:16:53;;;;;;;27.30;13.03;;;;;;;;;;10294591;28;20045;-67
2021/01/23 09:21:50;;;;;;;34.60;14.50;;;;;;;;;;10271595;28;20799;-66
2021/01/23 09:26:48;;;;;;;29.63;11.93;;;;;;;;;;10288766;28;20084;-66
2021/01/23 09:31:45;;;;;;;23.07;11.63;;;;;;;;;;10294288;28;20044;-65
2021/01/23 09:36:42;;;;;;;30.93;13.03;;;;;;;;;;10275718;28;20066;-66
2021/01/23 09:41:40;;;;;;;33.23;12.37;;;;;;;;;;10290902;28;20048;-66
2021/01/23 09:46:37;;;;;;;30.07;12.23;;;;;;;;;;10264784;28;20955;-65
2021/01/23 09:51:35;;;;;;;28.03;11.33;;;;;;;;;;10269380;28;20071;-66
2021/01/23 09:56:32;;;;;;;35.37;14.43;;;;;;;;;;10292093;28;20033;-65
2021/01/23 10:01:29;;;;;;;25.77;12.10;;;;;;;;;;10289897;28;20388;-66
2021/01/23 10:06:27;;;;;;;26.93;12.80;;;;;;;;;;10256859;28;20037;-66
2021/01/23 10:11:25;;;;;;;28.63;13.67;;;;;;;;;;10273782;28;20300;-66
2021/01/23 10:16:22;;;;;;;27.83;13.13;;;;;;;;;;10273499;28;20029;-66
2021/01/23 10:21:20;;;;;;;19.67;11.03;;;;;;;;;;10280048;28;20040;-66
2021/01/23 10:26:17;;;;;;;25.10;12.50;;;;;;;;;;10274264;28;20033;-65
2021/01/23 10:31:14;;;;;;;26.23;11.97;;;;;;;;;;10252676;28;20491;-66
2021/01/23 10:36:12;;;;;;;26.20;13.23;;;;;;;;;;10258401;28;20048;-66
2021/01/23 10:41:09;;;;;;;21.37;9.43;;;;;;;;;;10278382;28;20106;-65
2021/01/23 10:46:07;;;;;;;23.63;11.20;;;;;;;;;;10276112;28;20048;-65
2021/01/23 10:51:04;;;;;;;22.67;11.57;;;;;;;;;;10279761;28;20117;-66
2021/01/23 10:56:03;;;;;;;22.77;11.63;;;;;;;;;;10280451;28;20589;-65
2021/01/23 11:01:00;;;;;;;22.48;11.95;;;;;;;;;;10280993;28;20372;-66
2021/01/23 11:05:58;;;;;;;24.07;10.93;;;;;;;;;;10264268;28;20035;-65
2021/01/23 11:10:55;;;;;;;21.90;9.63;;;;;;;;;;10266984;28;20029;-66
2021/01/23 11:15:52;;;;;;;18.47;9.33;;;;;;;;;;10277566;28;20117;-66
2021/01/23 11:20:51;;;;;;;22.17;10.63;;;;;;;;;;10280826;28;20025;-65
2021/01/23 11:25:49;;;;;;;20.95;10.27;;;;;;;;;;10262681;28;20034;-65
2021/01/23 11:30:46;;;;;;;17.60;9.40;;;;;;;;;;10268609;28;20079;-65
2021/01/23 11:35:44;;;;;;;15.57;8.37;;;;;;;;;;10260186;28;20080;-64
2021/01/23 11:40:42;;;;;;;19.23;10.83;;;;;;;;;;10270665;28;20040;-66
2021/01/23 11:45:39;;;;;;;16.40;8.52;;;;;;;;;;10264500;28;20061;-65
2021/01/23 11:50:38;;;;;;;18.67;8.33;;;;;;;;;;10282573;28;20588;-65
2021/01/23 11:55:35;;;;;;;18.15;9.55;;;;;;;;;;10253390;28;20061;-66
2021/01/23 12:00:35;;;;;;;21.63;8.83;;;;;;;;;;10259012;28;20156;-65
2021/01/23 12:05:33;;;;;;;14.18;7.35;;;;;;;;;;10255339;28;20033;-65
2021/01/23 12:10:30;;;;;;;16.88;7.32;;;;;;;;;;10268208;28;20030;-63
2021/01/23 12:15:27;;;;;;;17.87;7.63;;;;;;;;;;10246903;28;20029;-64
2021/01/23 12:20:25;;;;;;;15.63;5.70;;;;;;;;;;10250392;28;20049;-65
2021/01/23 12:25:22;;;;;;;12.80;7.50;;;;;;;;;;10287429;28;20045;-63
2021/01/23 12:30:20;;;;;;;13.47;7.00;;;;;;;;;;10274207;28;20091;-65
2021/01/23 12:35:18;;;;;;;12.02;5.68;;;;;;;;;;10273925;28;20451;-65
2021/01/23 12:40:15;;;;;;;8.87;5.53;;;;;;;;;;10275665;28;20033;-65
2021/01/23 12:45:13;;;;;;;13.07;6.27;;;;;;;;;;10287894;28;20041;-64
2021/01/23 12:50:12;;;;;;;14.63;6.93;;;;;;;;;;10286415;28;20049;-64
2021/01/23 12:55:09;;;;;;;13.60;6.65;;;;;;;;;;10275877;28;20493;-64
2021/01/23 13:00:08;;;;;;;11.60;6.33;;;;;;;;;;10275793;28;20033;-65
2021/01/23 13:05:06;;;;;;;12.77;7.00;;;;;;;;;;10277850;28;20041;-64
2021/01/23 13:10:04;;;;;;;7.50;5.10;;;;;;;;;;10288013;28;20037;-64
2021/01/23 13:15:03;;;;;;;11.85;6.65;;;;;;;;;;10272436;28;20048;-64
2021/01/23 13:20:00;;;;;;;17.92;9.27;;;;;;;;;;10286385;28;20037;-64
2021/01/23 13:24:58;;;;;;;19.33;9.30;;;;;;;;;;10278218;28;20401;-64
2021/01/23 13:29:55;;;;;;;17.27;10.15;;;;;;;;;;10295258;28;20590;-64
2021/01/23 13:34:53;;;;;;;15.73;8.27;;;;;;;;;;10274129;28;20041;-64
2021/01/23 13:39:50;;;;;;;11.13;7.20;;;;;;;;;;10261287;28;20519;-65
2021/01/23 13:44:48;;;;;;;19.63;9.13;;;;;;;;;;10286976;28;20033;-65
2021/01/23 13:49:45;;;;;;;10.50;6.73;;;;;;;;;;10279823;28;20038;-65
2021/01/23 13:54:44;;;;;;;16.60;8.70;;;;;;;;;;10297818;28;20038;-65
2021/01/23 13:59:42;;;;;;;11.45;8.13;;;;;;;;;;10287603;28;20450;-64
2021/01/23 14:04:40;;;;;;;15.25;8.20;;;;;;;;;;10292973;28;20033;-65
2021/01/23 14:09:37;;;;;;;14.07;8.27;;;;;;;;;;10288860;28;20518;-65
2021/01/23 14:14:36;;;;;;;11.37;6.80;;;;;;;;;;10273349;28;20132;-64
2021/01/23 14:19:33;;;;;;;8.32;6.40;;;;;;;;;;10265317;28;20030;-64
2021/01/23 14:24:30;;;;;;;12.73;7.30;;;;;;;;;;10245055;28;20049;-65
2021/01/23 14:29:28;;;;;;;9.67;5.20;;;;;;;;;;10288304;28;20454;-65
2021/01/23 14:34:25;;;;;;;10.57;6.50;;;;;;;;;;10282218;28;20601;-65
2021/01/23 14:39:22;;;;;;;9.00;5.73;;;;;;;;;;10268061;28;20080;-64
2021/01/23 14:44:20;;;;;;;7.33;4.83;;;;;;;;;;10248138;28;20394;-64
2021/01/23 14:49:17;;;;;;;9.40;5.20;;;;;;;;;;10267585;28;20029;-65
2021/01/23 14:54:15;;;;;;;14.47;7.20;;;;;;;;;;10264071;28;20067;-63
2021/01/23 14:59:12;;;;;;;8.10;4.10;;;;;;;;;;10255465;28;20040;-65
2021/01/23 15:04:10;;;;;;;8.33;6.20;;;;;;;;;;10277447;28;20037;-64
2021/01/23 15:09:07;;;;;;;11.17;5.10;;;;;;;;;;10251490;28;20518;-65
2021/01/23 15:14:05;;;;;;;6.83;4.80;;;;;;;;;;10265314;28;20052;-65
2021/01/23 15:19:02;;;;;;;12.70;5.67;;;;;;;;;;10248043;28;20049;-64
2021/01/23 15:23:59;;;;;;;11.77;5.73;;;;;;;;;;10269446;28;20037;-64
2021/01/23 15:28:57;;;;;;;8.37;4.70;;;;;;;;;;10261855;28;20064;-65
2021/01/23 15:33:55;;;;;;;10.23;5.63;;;;;;;;;;10238824;28;20041;-64
2021/01/23 15:38:52;;;;;;;10.45;5.90;;;;;;;;;;10241923;28;20049;-65
2021/01/23 15:43:50;;;;;;;7.43;5.47;;;;;;;;;;10265276;28;20041;-64
2021/01/23 15:48:47;;;;;;;7.33;4.30;;;;;;;;;;10253894;28;20049;-64
2021/01/23 15:53:45;;;;;;;4.97;3.33;;;;;;;;;;10213908;28;20152;-65
2021/01/23 15:58:42;;;;;;;7.63;3.27;;;;;;;;;;10264708;28;20046;-64
2021/01/23 16:03:40;;;;;;;5.83;3.37;;;;;;;;;;10256487;28;20045;-64
2021/01/23 16:08:37;;;;;;;4.87;3.80;;;;;;;;;;10260308;28;20084;-64
2021/01/23 16:13:35;;;;;;;9.50;4.63;;;;;;;;;;10265542;28;20037;-66
2021/01/23 16:18:32;;;;;;;13.07;5.53;;;;;;;;;;10266319;28;20381;-64
2021/01/23 16:23:30;;;;;;;13.03;5.67;;;;;;;;;;10258008;28;20116;-65
2021/01/23 16:28:27;;;;;;;9.68;4.32;;;;;;;;;;10261208;28;20520;-63
2021/01/23 16:33:25;;;;;;;8.73;5.10;;;;;;;;;;10280371;28;20140;-64
2021/01/23 16:38:22;;;;;;;7.73;3.40;;;;;;;;;;10271477;28;20037;-65
2021/01/23 16:43:19;;;;;;;10.73;4.87;;;;;;;;;;10244020;28;20049;-66
2021/01/23 16:48:18;;;;;;;5.20;2.60;;;;;;;;;;10264436;28;20041;-64
2021/01/23 16:53:15;;;;;;;;;;;;;;;;;;10240705;28;20041;-66
2021/01/23 16:58:13;;;;;;;12.50;4.93;;;;;;;;;;10258568;28;19913;-65
2021/01/23 17:03:10;;;;;;;14.27;6.40;;;;;;;;;;10261817;28;20115;-64
2021/01/23 17:08:07;;;;;;;7.83;4.23;;;;;;;;;;10252401;28;20407;-66
2021/01/23 17:13:05;;;;;;;10.63;5.53;;;;;;;;;;10255176;28;20060;-65
2021/01/23 17:18:02;;;;;;;8.93;4.37;;;;;;;;;;10246967;28;20037;-64
2021/01/23 17:23:00;;;;;;;14.43;6.87;;;;;;;;;;10235807;28;20049;-66
2021/01/23 17:27:57;;;;;;;9.63;5.30;;;;;;;;;;10261523;28;20029;-65
2021/01/23 17:32:54;;;;;;;10.00;5.63;;;;;;;;;;10260671;28;20037;-65
2021/01/23 17:37:52;;;;;;;10.27;5.70;;;;;;;;;;10260703;28;20133;-64
2021/01/23 17:42:49;;;;;;;11.53;6.97;;;;;;;;;;10269189;28;20412;-66
2021/01/23 17:47:47;;;;;;;10.87;7.50;;;;;;;;;;10247812;28;20036;-65
2021/01/23 17:52:44;;;;;;;10.13;6.10;;;;;;;;;;10255181;28;20056;-66
2021/01/23 17:57:42;;;;;;;11.03;6.47;;;;;;;;;;10255419;28;20720;-66
2021/01/23 18:02:39;;;;;;;9.90;5.50;;;;;;;;;;10259266;28;20038;-66
2021/01/23 18:07:36;;;;;;;11.70;5.17;;;;;;;;;;10243126;28;20354;-66
2021/01/23 18:12:34;;;;;;;9.77;5.23;;;;;;;;;;10256983;28;20538;-63
2021/01/23 18:17:31;;;;;;;10.07;6.40;;;;;;;;;;10250422;28;20060;-65
2021/01/23 18:22:29;;;;;;;8.57;6.20;;;;;;;;;;10261200;28;20045;-65
2021/01/23 18:27:26;;;;;;;15.50;7.33;;;;;;;;;;10247487;28;20691;-66
2021/01/23 18:32:24;;;;;;;11.17;5.90;;;;;;;;;;10267922;28;20049;-64
2021/01/23 18:37:21;;;;;;;10.50;5.17;;;;;;;;;;10259295;28;20087;-66
2021/01/23 18:42:19;;;;;;;15.10;5.97;;;;;;;;;;10269885;28;20499;-65
2021/01/23 18:47:16;;;;;;;12.82;6.88;;;;;;;;;;10268580;28;20037;-64
2021/01/23 18:52:14;;;;;;;15.67;7.20;;;;;;;;;;10278571;28;20088;-65
2021/01/23 18:57:15;;;;;;;16.07;7.87;;;;;;;;;;10246271;28;20045;-67
2021/01/23 19:02:13;;;;;;;13.23;7.45;;;;;;;;;;10268175;28;20524;-65
2021/01/23 19:07:10;;;;;;;13.80;6.13;;;;;;;;;;10268491;28;20396;-65
2021/01/23 19:12:08;;;;;;;17.33;7.70;;;;;;;;;;10270052;28;20041;-67
2021/01/23 19:17:06;;;;;;;13.73;8.02;;;;;;;;;;10277684;28;20026;-65
2021/01/23 19:22:03;;;;;;;13.17;7.30;;;;;;;;;;10276258;28;20124;-66
2021/01/23 19:27:01;;;;;;;12.47;6.60;;;;;;;;;;10285782;28;20096;-64
2021/01/23 19:31:59;;;;;;;13.77;8.30;;;;;;;;;;10243910;28;20037;-65
2021/01/23 19:36:56;;;;;;;20.88;7.50;;;;;;;;;;10278718;28;20025;-64
2021/01/23 19:41:54;;;;;;;17.47;8.67;;;;;;;;;;10280437;28;20040;-64
2021/01/23 19:46:51;;;;;;;16.57;7.97;;;;;;;;;;10274717;28;20068;-65
2021/01/23 19:51:49;;;;;;;14.53;7.33;;;;;;;;;;10276410;28;20044;-65
2021/01/23 19:56:46;;;;;;;13.50;8.13;;;;;;;;;;10257137;28;20022;-64
2021/01/23 20:01:43;;;;;;;4.87;3.03;;;;;;;;;;10281719;28;20041;-65
2021/01/23 20:06:41;;;;;;;4.97;3.27;;;;;;;;;;10295267;28;20412;-65
2021/01/23 20:11:38;;;;;;;4.20;2.13;;;;;;;;;;10275159;28;20064;-65
2021/01/23 20:16:35;;;;;;;18.13;8.60;;;;;;;;;;10271283;28;20136;-64
2021/01/23 20:21:33;;;;;;;17.50;8.30;;;;;;;;;;10235696;28;20874;-65
2021/01/23 20:26:32;;;;;;;15.30;6.80;;;;;;;;;;10269008;28;20030;-65
2021/01/23 20:31:29;;;;;;;6.30;5.00;;;;;;;;;;10271181;28;20032;-66
2021/01/23 20:36:27;;;;;;;6.80;5.23;;;;;;;;;;10260380;28;20499;-64
2021/01/23 20:41:25;;;;;;;11.38;6.22;;;;;;;;;;10265691;28;20064;-66
2021/01/23 20:46:22;;;;;;;10.87;6.10;;;;;;;;;;10267149;28;20854;-66
2021/01/23 20:51:20;;;;;;;15.17;7.30;;;;;;;;;;10267521;28;20032;-65
2021/01/23 20:56:17;;;;;;;14.27;6.37;;;;;;;;;;10282593;28;20033;-65
2021/01/23 21:01:15;;;;;;;9.77;6.43;;;;;;;;;;10269367;28;20212;-65
2021/01/23 21:06:12;;;;;;;13.40;7.00;;;;;;;;;;10258944;28;20046;-65
2021/01/23 21:11:10;;;;;;;11.80;6.23;;;;;;;;;;10263018;28;20165;-64
2021/01/23 21:16:08;;;;;;;12.15;6.13;;;;;;;;;;10270884;28;20048;-65
2021/01/23 21:21:05;;;;;;;11.07;7.87;;;;;;;;;;10282822;28;21690;-66
2021/01/23 21:26:02;;;;;;;12.60;7.53;;;;;;;;;;10271352;28;20033;-65
2021/01/23 21:31:00;;;;;;;14.77;7.40;;;;;;;;;;10288931;28;20029;-65
2021/01/23 21:35:57;;;;;;;13.93;6.93;;;;;;;;;;10257201;28;20064;-65
2021/01/23 21:40:55;;;;;;;11.33;7.10;;;;;;;;;;10291428;28;20300;-65
2021/01/23 21:45:53;;;;;;;12.17;6.53;;;;;;;;;;10278658;28;20022;-65
2021/01/23 21:50:51;;;;;;;11.13;7.43;;;;;;;;;;10272593;28;20038;-65
2021/01/23 21:55:49;;;;;;;12.40;7.22;;;;;;;;;;10270649;28;20477;-66
2021/01/23 22:00:46;;;;;;;14.37;8.23;;;;;;;;;;10271240;28;20133;-65
2021/01/23 22:05:43;;;;;;;13.70;8.20;;;;;;;;;;10279933;28;20054;-65
2021/01/23 22:10:41;;;;;;;12.50;7.23;;;;;;;;;;10280499;28;20124;-65
2021/01/23 22:15:38;;;;;;;12.13;5.97;;;;;;;;;;10277737;28;20034;-64
2021/01/23 22:20:36;;;;;;;17.23;8.30;;;;;;;;;;10272441;28;20073;-64
2021/01/23 22:25:34;;;;;;;15.18;8.35;;;;;;;;;;10252376;28;20038;-64
2021/01/23 22:30:31;;;;;;;15.43;8.23;;;;;;;;;;10269958;28;20573;-65
2021/01/23 22:35:29;;;;;;;13.60;7.20;;;;;;;;;;10279887;28;20038;-65
2021/01/23 22:40:26;;;;;;;10.20;6.23;;;;;;;;;;10286822;28;20420;-65
2021/01/23 22:45:23;;;;;;;11.43;6.43;;;;;;;;;;10271704;28;20125;-64
2021/01/23 22:50:21;;;;;;;3.50;2.90;;;;;;;;;;10260191;28;20037;-64
2021/01/23 22:55:18;;;;;;;3.33;2.37;;;;;;;;;;10273411;28;20037;-63
2021/01/23 23:00:31;;;;;;;1.57;1.47;;;;;;;;;;10251002;28;20029;-63
2021/01/23 23:05:28;;;;;;;5.35;2.90;;;;;;;;;;10284118;28;20406;-64
2021/01/23 23:10:26;;;;;;;9.00;5.10;;;;;;;;;;10274405;28;20037;-65
2021/01/23 23:15:23;;;;;;;9.23;4.73;;;;;;;;;;10257039;28;20029;-64
2021/01/23 23:20:20;;;;;;;8.10;4.47;;;;;;;;;;10260026;28;20091;-64
2021/01/23 23:25:19;;;;;;;6.00;2.90;;;;;;;;;;10281841;28;20040;-64
2021/01/23 23:30:17;;;;;;;14.85;6.22;;;;;;;;;;10277928;28;20099;-64
2021/01/23 23:35:15;;;;;;;2.65;1.65;;;;;;;;;;10253515;28;20033;-65
2021/01/23 23:40:13;;;;;;;9.97;3.47;;;;;;;;;;10263034;28;20507;-64
2021/01/23 23:45:12;;;;;;;2.25;1.48;;;;;;;;;;10290272;28;20391;-65
2021/01/23 23:50:10;;;;;;;12.15;4.82;;;;;;;;;;10243557;28;20049;-63
2021/01/23 23:55:07;;;;;;;6.32;3.65;;;;;;;;;;10225152;28;20037;-64
